sensor_id;sensor_type;location;lat;lon;timestamp;P1;durP1;ratioP1;P2;durP2;ratioP2
23988;SDS011;12202;52.136;5.592;2022-10-15T00:02:21;115.25;;;56.10;;
23988;SDS011;12202;52.136;5.592;2022-10-15T00:04:47;119.38;;;54.72;;
23988;SDS011;12202;52.136;5.592;2022-10-15T00:07:13;117.03;;;56.78;;
23988;SDS011;12202;52.136;5.592;2022-10-15T00:09:39;114.53;;;56.63;;
23988;SDS011;12202;52.136;5.592;2022-10-15T00:12:05;116.40;;;55.88;;
23988;SDS011;12202;52.136;5.592;2022-10-15T00:14:31;122.45;;;56.75;;
23988;SDS011;12202;52.136;5.592;2022-10-15T00:16:57;134.52;;;62.38;;
23988;SDS011;12202;52.136;5.592;2022-10-15T00:19:22;121.47;;;57.90;;
23988;SDS011;12202;52.136;5.592;2022-10-15T00:21:48;128.63;;;58.53;;
23988;SDS011;12202;52.136;5.592;2022-10-15T00:24:14;116.53;;;58.72;;
23988;SDS011;12202;52.136;5.592;2022-10-15T00:26:40;127.18;;;59.67;;
23988;SDS011;12202;52.136;5.592;2022-10-15T00:29:06;114.72;;;55.78;;
23988;SDS011;12202;52.136;5.592;2022-10-15T00:31:32;117.82;;;58.75;;
23988;SDS011;12202;52.136;5.592;2022-10-15T00:33:59;121.75;;;57.28;;
23988;SDS011;12202;52.136;5.592;2022-10-15T00:36:27;127.95;;;61.72;;
23988;SDS011;12202;52.136;5.592;2022-10-15T00:38:54;141.02;;;62.47;;
23988;SDS011;12202;52.136;5.592;2022-10-15T00:41:21;127.20;;;60.95;;
23988;SDS011;12202;52.136;5.592;2022-10-15T00:43:52;125.50;;;59.30;;
23988;SDS011;12202;52.136;5.592;2022-10-15T00:46:23;135.48;;;60.53;;
23988;SDS011;12202;52.136;5.592;2022-10-15T00:48:52;123.80;;;59.50;;
23988;SDS011;12202;52.136;5.592;2022-10-15T00:51:20;145.07;;;61.85;;
23988;SDS011;12202;52.136;5.592;2022-10-15T00:53:47;131.48;;;63.00;;
23988;SDS011;12202;52.136;5.592;2022-10-15T00:56:14;128.85;;;59.63;;
23988;SDS011;12202;52.136;5.592;2022-10-15T00:58:40;128.65;;;60.00;;
23988;SDS011;12202;52.136;5.592;2022-10-15T01:01:06;126.53;;;60.33;;
23988;SDS011;12202;52.136;5.592;2022-10-15T01:03:33;148.63;;;64.55;;
23988;SDS011;12202;52.136;5.592;2022-10-15T01:06:00;139.93;;;63.55;;
23988;SDS011;12202;52.136;5.592;2022-10-15T01:08:26;140.07;;;64.15;;
23988;SDS011;12202;52.136;5.592;2022-10-15T01:13:37;140.70;;;61.78;;
23988;SDS011;12202;52.136;5.592;2022-10-15T01:18:33;131.85;;;59.63;;
23988;SDS011;12202;52.136;5.592;2022-10-15T01:21:07;134.98;;;63.17;;
23988;SDS011;12202;52.136;5.592;2022-10-15T01:28:59;135.35;;;62.70;;
23988;SDS011;12202;52.136;5.592;2022-10-15T01:34:03;141.20;;;64.57;;
23988;SDS011;12202;52.136;5.592;2022-10-15T01:36:36;145.55;;;65.57;;
23988;SDS011;12202;52.136;5.592;2022-10-15T01:39:05;148.90;;;67.38;;
23988;SDS011;12202;52.136;5.592;2022-10-15T01:41:40;142.45;;;64.78;;
23988;SDS011;12202;52.136;5.592;2022-10-15T01:44:12;148.63;;;66.75;;
23988;SDS011;12202;52.136;5.592;2022-10-15T01:46:45;145.98;;;67.70;;
23988;SDS011;12202;52.136;5.592;2022-10-15T01:49:12;151.77;;;65.82;;
23988;SDS011;12202;52.136;5.592;2022-10-15T01:51:40;149.05;;;66.93;;
23988;SDS011;12202;52.136;5.592;2022-10-15T01:54:07;155.95;;;68.15;;
23988;SDS011;12202;52.136;5.592;2022-10-15T01:56:35;146.55;;;66.10;;
23988;SDS011;12202;52.136;5.592;2022-10-15T01:59:02;150.75;;;65.97;;
23988;SDS011;12202;52.136;5.592;2022-10-15T02:01:29;148.73;;;66.78;;
23988;SDS011;12202;52.136;5.592;2022-10-15T02:03:55;150.85;;;68.93;;
23988;SDS011;12202;52.136;5.592;2022-10-15T02:06:26;159.13;;;70.05;;
23988;SDS011;12202;52.136;5.592;2022-10-15T02:09:00;159.07;;;69.63;;
23988;SDS011;12202;52.136;5.592;2022-10-15T02:11:28;166.50;;;71.68;;
23988;SDS011;12202;52.136;5.592;2022-10-15T02:14:03;171.10;;;72.32;;
23988;SDS011;12202;52.136;5.592;2022-10-15T02:21:43;174.65;;;73.15;;
23988;SDS011;12202;52.136;5.592;2022-10-15T02:24:16;178.93;;;73.10;;
23988;SDS011;12202;52.136;5.592;2022-10-15T02:26:44;178.50;;;73.68;;
23988;SDS011;12202;52.136;5.592;2022-10-15T02:29:12;190.88;;;75.95;;
23988;SDS011;12202;52.136;5.592;2022-10-15T02:31:40;188.75;;;75.60;;
23988;SDS011;12202;52.136;5.592;2022-10-15T02:34:07;194.70;;;80.30;;
23988;SDS011;12202;52.136;5.592;2022-10-15T02:36:34;207.63;;;82.25;;
23988;SDS011;12202;52.136;5.592;2022-10-15T02:39:02;210.68;;;85.00;;
23988;SDS011;12202;52.136;5.592;2022-10-15T02:41:28;204.90;;;79.47;;
23988;SDS011;12202;52.136;5.592;2022-10-15T02:43:54;211.40;;;83.60;;
23988;SDS011;12202;52.136;5.592;2022-10-15T02:46:20;213.63;;;85.32;;
23988;SDS011;12202;52.136;5.592;2022-10-15T02:48:46;203.85;;;82.20;;
23988;SDS011;12202;52.136;5.592;2022-10-15T02:51:12;222.80;;;83.97;;
23988;SDS011;12202;52.136;5.592;2022-10-15T02:53:38;214.40;;;82.95;;
23988;SDS011;12202;52.136;5.592;2022-10-15T02:56:04;210.75;;;82.25;;
23988;SDS011;12202;52.136;5.592;2022-10-15T02:58:30;206.13;;;83.95;;
23988;SDS011;12202;52.136;5.592;2022-10-15T03:00:56;186.77;;;78.93;;
23988;SDS011;12202;52.136;5.592;2022-10-15T03:03:22;197.60;;;80.10;;
23988;SDS011;12202;52.136;5.592;2022-10-15T03:05:48;191.80;;;80.22;;
23988;SDS011;12202;52.136;5.592;2022-10-15T03:08:14;200.63;;;81.65;;
23988;SDS011;12202;52.136;5.592;2022-10-15T03:10:41;201.63;;;81.82;;
23988;SDS011;12202;52.136;5.592;2022-10-15T03:13:09;198.38;;;82.85;;
23988;SDS011;12202;52.136;5.592;2022-10-15T03:15:35;182.10;;;76.43;;
23988;SDS011;12202;52.136;5.592;2022-10-15T03:18:01;191.98;;;80.07;;
23988;SDS011;12202;52.136;5.592;2022-10-15T03:20:27;183.45;;;79.03;;
23988;SDS011;12202;52.136;5.592;2022-10-15T03:22:52;191.60;;;78.15;;
23988;SDS011;12202;52.136;5.592;2022-10-15T03:25:18;178.40;;;75.88;;
23988;SDS011;12202;52.136;5.592;2022-10-15T03:27:43;173.63;;;74.13;;
23988;SDS011;12202;52.136;5.592;2022-10-15T03:30:09;179.98;;;73.00;;
23988;SDS011;12202;52.136;5.592;2022-10-15T03:32:35;178.82;;;73.45;;
23988;SDS011;12202;52.136;5.592;2022-10-15T03:35:01;166.50;;;72.40;;
23988;SDS011;12202;52.136;5.592;2022-10-15T03:37:27;172.38;;;74.88;;
23988;SDS011;12202;52.136;5.592;2022-10-15T03:39:53;164.48;;;74.50;;
23988;SDS011;12202;52.136;5.592;2022-10-15T03:42:19;159.27;;;71.68;;
23988;SDS011;12202;52.136;5.592;2022-10-15T03:44:45;180.45;;;78.45;;
23988;SDS011;12202;52.136;5.592;2022-10-15T03:47:10;181.63;;;74.97;;
23988;SDS011;12202;52.136;5.592;2022-10-15T03:49:36;169.48;;;73.68;;
23988;SDS011;12202;52.136;5.592;2022-10-15T03:52:02;174.43;;;75.32;;
23988;SDS011;12202;52.136;5.592;2022-10-15T03:54:27;160.73;;;69.78;;
23988;SDS011;12202;52.136;5.592;2022-10-15T03:56:53;165.93;;;72.30;;
23988;SDS011;12202;52.136;5.592;2022-10-15T03:59:19;169.48;;;75.05;;
23988;SDS011;12202;52.136;5.592;2022-10-15T04:01:45;160.35;;;73.32;;
23988;SDS011;12202;52.136;5.592;2022-10-15T04:04:11;176.85;;;73.38;;
23988;SDS011;12202;52.136;5.592;2022-10-15T04:06:37;168.95;;;72.97;;
23988;SDS011;12202;52.136;5.592;2022-10-15T04:09:03;174.30;;;74.88;;
23988;SDS011;12202;52.136;5.592;2022-10-15T04:11:29;162.93;;;73.75;;
23988;SDS011;12202;52.136;5.592;2022-10-15T04:13:55;168.57;;;74.53;;
23988;SDS011;12202;52.136;5.592;2022-10-15T04:16:21;167.32;;;77.63;;
23988;SDS011;12202;52.136;5.592;2022-10-15T04:18:47;166.32;;;74.97;;
23988;SDS011;12202;52.136;5.592;2022-10-15T04:21:13;160.02;;;73.55;;
23988;SDS011;12202;52.136;5.592;2022-10-15T04:23:39;174.63;;;77.28;;
23988;SDS011;12202;52.136;5.592;2022-10-15T04:26:05;178.30;;;81.07;;
23988;SDS011;12202;52.136;5.592;2022-10-15T04:28:31;186.82;;;80.53;;
23988;SDS011;12202;52.136;5.592;2022-10-15T04:30:58;176.80;;;77.22;;
23988;SDS011;12202;52.136;5.592;2022-10-15T04:33:24;169.52;;;76.00;;
23988;SDS011;12202;52.136;5.592;2022-10-15T04:35:57;177.48;;;77.05;;
23988;SDS011;12202;52.136;5.592;2022-10-15T04:38:23;182.13;;;78.85;;
23988;SDS011;12202;52.136;5.592;2022-10-15T04:40:56;182.02;;;79.47;;
23988;SDS011;12202;52.136;5.592;2022-10-15T04:43:22;172.10;;;77.35;;
23988;SDS011;12202;52.136;5.592;2022-10-15T04:45:48;178.98;;;76.97;;
23988;SDS011;12202;52.136;5.592;2022-10-15T04:48:14;171.60;;;78.35;;
23988;SDS011;12202;52.136;5.592;2022-10-15T04:50:40;178.57;;;78.72;;
23988;SDS011;12202;52.136;5.592;2022-10-15T04:53:06;169.20;;;76.93;;
23988;SDS011;12202;52.136;5.592;2022-10-15T04:55:32;178.55;;;79.18;;
23988;SDS011;12202;52.136;5.592;2022-10-15T04:57:58;174.32;;;78.85;;
23988;SDS011;12202;52.136;5.592;2022-10-15T05:00:24;185.18;;;80.93;;
23988;SDS011;12202;52.136;5.592;2022-10-15T05:02:50;202.52;;;84.53;;
23988;SDS011;12202;52.136;5.592;2022-10-15T05:05:16;189.10;;;84.55;;
23988;SDS011;12202;52.136;5.592;2022-10-15T05:07:42;183.32;;;80.72;;
23988;SDS011;12202;52.136;5.592;2022-10-15T05:10:08;202.63;;;84.72;;
23988;SDS011;12202;52.136;5.592;2022-10-15T05:12:34;208.75;;;87.63;;
23988;SDS011;12202;52.136;5.592;2022-10-15T05:15:00;190.52;;;83.82;;
23988;SDS011;12202;52.136;5.592;2022-10-15T05:17:29;199.05;;;84.75;;
23988;SDS011;12202;52.136;5.592;2022-10-15T05:19:55;209.07;;;85.55;;
23988;SDS011;12202;52.136;5.592;2022-10-15T05:22:21;211.68;;;88.45;;
23988;SDS011;12202;52.136;5.592;2022-10-15T05:24:47;191.23;;;83.60;;
23988;SDS011;12202;52.136;5.592;2022-10-15T05:27:13;192.82;;;86.43;;
23988;SDS011;12202;52.136;5.592;2022-10-15T05:29:39;205.63;;;85.72;;
23988;SDS011;12202;52.136;5.592;2022-10-15T05:32:05;207.68;;;86.60;;
23988;SDS011;12202;52.136;5.592;2022-10-15T05:34:31;204.77;;;86.50;;
23988;SDS011;12202;52.136;5.592;2022-10-15T05:36:57;209.95;;;87.28;;
23988;SDS011;12202;52.136;5.592;2022-10-15T05:39:23;207.73;;;87.25;;
23988;SDS011;12202;52.136;5.592;2022-10-15T05:41:49;218.27;;;91.40;;
23988;SDS011;12202;52.136;5.592;2022-10-15T05:44:17;218.27;;;92.85;;
23988;SDS011;12202;52.136;5.592;2022-10-15T05:46:43;207.25;;;88.00;;
23988;SDS011;12202;52.136;5.592;2022-10-15T05:49:09;219.52;;;91.47;;
23988;SDS011;12202;52.136;5.592;2022-10-15T05:51:36;246.57;;;93.65;;
23988;SDS011;12202;52.136;5.592;2022-10-15T05:54:02;272.60;;;101.88;;
23988;SDS011;12202;52.136;5.592;2022-10-15T05:56:28;274.10;;;101.28;;
23988;SDS011;12202;52.136;5.592;2022-10-15T05:58:54;267.20;;;98.80;;
23988;SDS011;12202;52.136;5.592;2022-10-15T06:01:20;282.80;;;102.05;;
23988;SDS011;12202;52.136;5.592;2022-10-15T06:03:46;293.98;;;100.53;;
23988;SDS011;12202;52.136;5.592;2022-10-15T06:06:13;312.92;;;100.68;;
23988;SDS011;12202;52.136;5.592;2022-10-15T06:08:39;285.80;;;96.00;;
23988;SDS011;12202;52.136;5.592;2022-10-15T06:11:05;292.48;;;99.47;;
23988;SDS011;12202;52.136;5.592;2022-10-15T06:13:31;294.83;;;97.10;;
23988;SDS011;12202;52.136;5.592;2022-10-15T06:15:57;274.00;;;91.78;;
23988;SDS011;12202;52.136;5.592;2022-10-15T06:18:23;287.08;;;96.28;;
23988;SDS011;12202;52.136;5.592;2022-10-15T06:20:50;282.33;;;91.43;;
23988;SDS011;12202;52.136;5.592;2022-10-15T06:23:16;268.67;;;86.53;;
23988;SDS011;12202;52.136;5.592;2022-10-15T06:25:42;254.38;;;88.45;;
23988;SDS011;12202;52.136;5.592;2022-10-15T06:28:08;251.10;;;85.93;;
23988;SDS011;12202;52.136;5.592;2022-10-15T06:30:34;256.63;;;85.97;;
23988;SDS011;12202;52.136;5.592;2022-10-15T06:33:00;240.85;;;85.28;;
23988;SDS011;12202;52.136;5.592;2022-10-15T06:35:26;230.18;;;81.28;;
23988;SDS011;12202;52.136;5.592;2022-10-15T06:38:01;244.50;;;83.70;;
23988;SDS011;12202;52.136;5.592;2022-10-15T06:40:28;244.98;;;78.50;;
23988;SDS011;12202;52.136;5.592;2022-10-15T06:42:54;210.05;;;71.30;;
23988;SDS011;12202;52.136;5.592;2022-10-15T06:45:20;208.48;;;68.35;;
23988;SDS011;12202;52.136;5.592;2022-10-15T06:47:46;213.95;;;72.57;;
23988;SDS011;12202;52.136;5.592;2022-10-15T06:50:12;234.20;;;74.68;;
23988;SDS011;12202;52.136;5.592;2022-10-15T06:52:38;208.93;;;70.55;;
23988;SDS011;12202;52.136;5.592;2022-10-15T06:55:04;223.20;;;75.50;;
23988;SDS011;12202;52.136;5.592;2022-10-15T06:57:30;227.23;;;74.28;;
23988;SDS011;12202;52.136;5.592;2022-10-15T06:59:56;218.85;;;69.70;;
23988;SDS011;12202;52.136;5.592;2022-10-15T07:02:22;207.13;;;67.72;;
23988;SDS011;12202;52.136;5.592;2022-10-15T07:04:48;207.10;;;67.35;;
23988;SDS011;12202;52.136;5.592;2022-10-15T07:07:15;211.60;;;66.25;;
23988;SDS011;12202;52.136;5.592;2022-10-15T07:09:41;206.20;;;65.07;;
23988;SDS011;12202;52.136;5.592;2022-10-15T07:12:07;202.63;;;64.72;;
23988;SDS011;12202;52.136;5.592;2022-10-15T07:14:33;201.57;;;65.55;;
23988;SDS011;12202;52.136;5.592;2022-10-15T07:16:59;197.18;;;63.00;;
23988;SDS011;12202;52.136;5.592;2022-10-15T07:19:25;171.88;;;59.78;;
23988;SDS011;12202;52.136;5.592;2022-10-15T07:21:52;185.20;;;62.53;;
23988;SDS011;12202;52.136;5.592;2022-10-15T07:24:18;187.00;;;58.53;;
23988;SDS011;12202;52.136;5.592;2022-10-15T07:26:45;182.25;;;59.70;;
23988;SDS011;12202;52.136;5.592;2022-10-15T07:29:11;168.55;;;59.75;;
23988;SDS011;12202;52.136;5.592;2022-10-15T07:31:37;171.30;;;57.13;;
23988;SDS011;12202;52.136;5.592;2022-10-15T07:34:04;156.50;;;56.25;;
23988;SDS011;12202;52.136;5.592;2022-10-15T07:36:30;158.07;;;55.70;;
23988;SDS011;12202;52.136;5.592;2022-10-15T07:38:56;166.65;;;57.38;;
23988;SDS011;12202;52.136;5.592;2022-10-15T07:41:22;136.70;;;50.88;;
23988;SDS011;12202;52.136;5.592;2022-10-15T07:43:50;135.45;;;49.67;;
23988;SDS011;12202;52.136;5.592;2022-10-15T07:46:17;125.28;;;47.35;;
23988;SDS011;12202;52.136;5.592;2022-10-15T07:48:43;133.70;;;46.50;;
23988;SDS011;12202;52.136;5.592;2022-10-15T07:51:09;122.05;;;45.88;;
23988;SDS011;12202;52.136;5.592;2022-10-15T07:53:36;130.30;;;47.47;;
23988;SDS011;12202;52.136;5.592;2022-10-15T07:56:06;112.20;;;44.72;;
23988;SDS011;12202;52.136;5.592;2022-10-15T07:58:33;114.78;;;46.03;;
23988;SDS011;12202;52.136;5.592;2022-10-15T08:01:02;102.07;;;43.17;;
23988;SDS011;12202;52.136;5.592;2022-10-15T08:03:29;96.70;;;41.05;;
23988;SDS011;12202;52.136;5.592;2022-10-15T08:05:55;97.45;;;43.30;;
23988;SDS011;12202;52.136;5.592;2022-10-15T08:08:21;94.10;;;37.63;;
23988;SDS011;12202;52.136;5.592;2022-10-15T08:10:47;81.20;;;37.38;;
23988;SDS011;12202;52.136;5.592;2022-10-15T08:13:13;89.13;;;38.17;;
23988;SDS011;12202;52.136;5.592;2022-10-15T08:15:39;86.97;;;37.30;;
23988;SDS011;12202;52.136;5.592;2022-10-15T08:18:07;85.57;;;37.53;;
23988;SDS011;12202;52.136;5.592;2022-10-15T08:20:34;89.30;;;37.55;;
23988;SDS011;12202;52.136;5.592;2022-10-15T08:23:01;85.07;;;36.25;;
23988;SDS011;12202;52.136;5.592;2022-10-15T08:25:27;84.40;;;37.33;;
23988;SDS011;12202;52.136;5.592;2022-10-15T08:27:53;89.38;;;37.15;;
23988;SDS011;12202;52.136;5.592;2022-10-15T08:30:20;89.60;;;37.33;;
23988;SDS011;12202;52.136;5.592;2022-10-15T08:32:46;81.22;;;37.28;;
23988;SDS011;12202;52.136;5.592;2022-10-15T08:35:12;79.97;;;36.20;;
23988;SDS011;12202;52.136;5.592;2022-10-15T08:37:38;77.63;;;35.67;;
23988;SDS011;12202;52.136;5.592;2022-10-15T08:40:04;75.15;;;34.05;;
23988;SDS011;12202;52.136;5.592;2022-10-15T08:42:35;80.68;;;35.53;;
23988;SDS011;12202;52.136;5.592;2022-10-15T08:45:02;71.70;;;33.75;;
23988;SDS011;12202;52.136;5.592;2022-10-15T08:47:37;71.25;;;33.38;;
23988;SDS011;12202;52.136;5.592;2022-10-15T08:50:16;66.65;;;31.77;;
23988;SDS011;12202;52.136;5.592;2022-10-15T08:52:43;67.05;;;31.25;;
23988;SDS011;12202;52.136;5.592;2022-10-15T08:55:18;69.18;;;30.58;;
23988;SDS011;12202;52.136;5.592;2022-10-15T08:57:45;65.30;;;30.33;;
23988;SDS011;12202;52.136;5.592;2022-10-15T09:02:51;66.20;;;29.98;;
23988;SDS011;12202;52.136;5.592;2022-10-15T09:08:20;64.47;;;31.30;;
23988;SDS011;12202;52.136;5.592;2022-10-15T09:10:59;60.55;;;29.00;;
23988;SDS011;12202;52.136;5.592;2022-10-15T09:13:29;62.13;;;31.23;;
23988;SDS011;12202;52.136;5.592;2022-10-15T09:15:59;67.55;;;32.42;;
23988;SDS011;12202;52.136;5.592;2022-10-15T09:18:29;62.20;;;31.00;;
23988;SDS011;12202;52.136;5.592;2022-10-15T09:20:56;67.03;;;32.85;;
23988;SDS011;12202;52.136;5.592;2022-10-15T09:23:25;67.45;;;31.73;;
23988;SDS011;12202;52.136;5.592;2022-10-15T09:26:00;68.00;;;34.22;;
23988;SDS011;12202;52.136;5.592;2022-10-15T09:28:29;65.97;;;32.35;;
23988;SDS011;12202;52.136;5.592;2022-10-15T09:30:56;66.35;;;31.17;;
23988;SDS011;12202;52.136;5.592;2022-10-15T09:33:39;63.00;;;31.42;;
23988;SDS011;12202;52.136;5.592;2022-10-15T09:36:18;68.68;;;33.08;;
23988;SDS011;12202;52.136;5.592;2022-10-15T09:41:34;64.90;;;31.85;;
23988;SDS011;12202;52.136;5.592;2022-10-15T09:44:01;57.03;;;30.25;;
23988;SDS011;12202;52.136;5.592;2022-10-15T09:46:27;55.97;;;28.08;;
23988;SDS011;12202;52.136;5.592;2022-10-15T09:49:10;56.13;;;28.17;;
23988;SDS011;12202;52.136;5.592;2022-10-15T09:52:03;52.17;;;26.52;;
23988;SDS011;12202;52.136;5.592;2022-10-15T09:54:34;52.20;;;26.38;;
23988;SDS011;12202;52.136;5.592;2022-10-15T09:57:05;49.35;;;24.48;;
23988;SDS011;12202;52.136;5.592;2022-10-15T09:59:33;45.30;;;24.25;;
23988;SDS011;12202;52.136;5.592;2022-10-15T10:04:31;41.70;;;23.40;;
23988;SDS011;12202;52.136;5.592;2022-10-15T10:06:59;44.63;;;23.80;;
23988;SDS011;12202;52.136;5.592;2022-10-15T10:11:57;36.83;;;21.17;;
23988;SDS011;12202;52.136;5.592;2022-10-15T10:14:41;41.50;;;22.20;;
23988;SDS011;12202;52.136;5.592;2022-10-15T10:19:42;35.58;;;20.50;;
23988;SDS011;12202;52.136;5.592;2022-10-15T10:22:26;39.35;;;20.63;;
23988;SDS011;12202;52.136;5.592;2022-10-15T10:24:52;32.65;;;19.23;;
23988;SDS011;12202;52.136;5.592;2022-10-15T10:27:26;39.40;;;21.88;;
23988;SDS011;12202;52.136;5.592;2022-10-15T10:29:58;44.78;;;22.80;;
23988;SDS011;12202;52.136;5.592;2022-10-15T10:32:31;36.53;;;20.67;;
23988;SDS011;12202;52.136;5.592;2022-10-15T10:34:58;36.00;;;20.20;;
23988;SDS011;12202;52.136;5.592;2022-10-15T10:37:25;33.70;;;19.50;;
23988;SDS011;12202;52.136;5.592;2022-10-15T10:39:56;35.25;;;20.75;;
23988;SDS011;12202;52.136;5.592;2022-10-15T10:42:30;38.30;;;21.30;;
23988;SDS011;12202;52.136;5.592;2022-10-15T10:45:05;32.85;;;19.52;;
23988;SDS011;12202;52.136;5.592;2022-10-15T10:47:34;37.97;;;19.73;;
23988;SDS011;12202;52.136;5.592;2022-10-15T10:50:03;38.65;;;20.08;;
23988;SDS011;12202;52.136;5.592;2022-10-15T10:52:49;34.47;;;19.92;;
23988;SDS011;12202;52.136;5.592;2022-10-15T10:55:16;31.67;;;18.85;;
23988;SDS011;12202;52.136;5.592;2022-10-15T10:57:47;30.17;;;18.10;;
23988;SDS011;12202;52.136;5.592;2022-10-15T11:00:21;31.45;;;17.27;;
23988;SDS011;12202;52.136;5.592;2022-10-15T11:02:49;33.75;;;18.95;;
23988;SDS011;12202;52.136;5.592;2022-10-15T11:05:27;39.20;;;20.40;;
23988;SDS011;12202;52.136;5.592;2022-10-15T11:10:30;34.17;;;19.95;;
23988;SDS011;12202;52.136;5.592;2022-10-15T11:20:57;33.80;;;17.48;;
23988;SDS011;12202;52.136;5.592;2022-10-15T11:23:33;33.38;;;17.70;;
23988;SDS011;12202;52.136;5.592;2022-10-15T11:28:53;26.13;;;15.95;;
23988;SDS011;12202;52.136;5.592;2022-10-15T11:33:53;30.00;;;16.80;;
23988;SDS011;12202;52.136;5.592;2022-10-15T11:36:25;32.47;;;18.05;;
23988;SDS011;12202;52.136;5.592;2022-10-15T11:39:02;27.23;;;16.25;;
23988;SDS011;12202;52.136;5.592;2022-10-15T11:49:07;30.88;;;16.58;;
23988;SDS011;12202;52.136;5.592;2022-10-15T11:51:46;32.63;;;17.48;;
23988;SDS011;12202;52.136;5.592;2022-10-15T11:54:30;29.63;;;15.88;;
23988;SDS011;12202;52.136;5.592;2022-10-15T11:56:59;31.48;;;17.13;;
23988;SDS011;12202;52.136;5.592;2022-10-15T11:59:36;29.40;;;15.95;;
23988;SDS011;12202;52.136;5.592;2022-10-15T12:02:08;30.38;;;17.13;;
23988;SDS011;12202;52.136;5.592;2022-10-15T12:04:47;31.48;;;16.55;;
23988;SDS011;12202;52.136;5.592;2022-10-15T12:07:19;34.78;;;16.88;;
23988;SDS011;12202;52.136;5.592;2022-10-15T12:09:48;27.73;;;16.15;;
23988;SDS011;12202;52.136;5.592;2022-10-15T12:14:43;28.08;;;16.00;;
23988;SDS011;12202;52.136;5.592;2022-10-15T12:19:49;24.70;;;14.07;;
23988;SDS011;12202;52.136;5.592;2022-10-15T12:22:30;27.58;;;13.60;;
23988;SDS011;12202;52.136;5.592;2022-10-15T12:24:56;25.40;;;14.55;;
23988;SDS011;12202;52.136;5.592;2022-10-15T12:27:30;21.77;;;13.05;;
23988;SDS011;12202;52.136;5.592;2022-10-15T12:32:28;25.60;;;14.30;;
23988;SDS011;12202;52.136;5.592;2022-10-15T12:35:02;32.22;;;19.10;;
23988;SDS011;12202;52.136;5.592;2022-10-15T12:37:30;26.48;;;16.77;;
23988;SDS011;12202;52.136;5.592;2022-10-15T12:40:03;24.45;;;13.48;;
23988;SDS011;12202;52.136;5.592;2022-10-15T12:42:34;20.98;;;14.25;;
23988;SDS011;12202;52.136;5.592;2022-10-15T12:45:01;23.73;;;13.38;;
23988;SDS011;12202;52.136;5.592;2022-10-15T12:50:16;23.65;;;14.95;;
23988;SDS011;12202;52.136;5.592;2022-10-15T12:52:49;26.45;;;16.45;;
23988;SDS011;12202;52.136;5.592;2022-10-15T13:00:30;27.58;;;18.25;;
23988;SDS011;12202;52.136;5.592;2022-10-15T13:03:07;27.60;;;16.33;;
23988;SDS011;12202;52.136;5.592;2022-10-15T13:05:33;24.48;;;16.13;;
23988;SDS011;12202;52.136;5.592;2022-10-15T13:08:02;24.73;;;15.23;;
23988;SDS011;12202;52.136;5.592;2022-10-15T13:10:32;26.20;;;16.13;;
23988;SDS011;12202;52.136;5.592;2022-10-15T13:12:59;24.42;;;16.15;;
23988;SDS011;12202;52.136;5.592;2022-10-15T13:15:27;28.83;;;15.93;;
23988;SDS011;12202;52.136;5.592;2022-10-15T13:17:54;31.35;;;17.77;;
23988;SDS011;12202;52.136;5.592;2022-10-15T13:20:36;26.38;;;17.38;;
23988;SDS011;12202;52.136;5.592;2022-10-15T13:23:07;26.42;;;17.50;;
23988;SDS011;12202;52.136;5.592;2022-10-15T13:25:33;21.85;;;14.82;;
23988;SDS011;12202;52.136;5.592;2022-10-15T13:27:59;23.80;;;15.07;;
23988;SDS011;12202;52.136;5.592;2022-10-15T13:30:25;28.00;;;16.40;;
23988;SDS011;12202;52.136;5.592;2022-10-15T13:32:52;26.95;;;16.30;;
23988;SDS011;12202;52.136;5.592;2022-10-15T13:35:20;25.73;;;15.30;;
23988;SDS011;12202;52.136;5.592;2022-10-15T13:37:46;30.10;;;16.77;;
23988;SDS011;12202;52.136;5.592;2022-10-15T13:40:18;28.85;;;16.25;;
23988;SDS011;12202;52.136;5.592;2022-10-15T13:45:23;23.90;;;14.27;;
23988;SDS011;12202;52.136;5.592;2022-10-15T13:47:51;24.83;;;15.00;;
23988;SDS011;12202;52.136;5.592;2022-10-15T13:50:21;24.77;;;14.75;;
23988;SDS011;12202;52.136;5.592;2022-10-15T13:55:34;22.08;;;14.18;;
23988;SDS011;12202;52.136;5.592;2022-10-15T14:00:39;30.75;;;18.25;;
23988;SDS011;12202;52.136;5.592;2022-10-15T14:03:12;23.30;;;14.40;;
23988;SDS011;12202;52.136;5.592;2022-10-15T14:05:38;21.35;;;14.13;;
23988;SDS011;12202;52.136;5.592;2022-10-15T14:08:04;22.85;;;13.57;;
23988;SDS011;12202;52.136;5.592;2022-10-15T14:10:30;20.65;;;14.02;;
23988;SDS011;12202;52.136;5.592;2022-10-15T14:12:56;21.23;;;13.52;;
23988;SDS011;12202;52.136;5.592;2022-10-15T14:15:41;20.15;;;12.55;;
23988;SDS011;12202;52.136;5.592;2022-10-15T14:18:09;20.40;;;13.48;;
23988;SDS011;12202;52.136;5.592;2022-10-15T14:20:35;18.73;;;13.10;;
23988;SDS011;12202;52.136;5.592;2022-10-15T14:23:01;19.40;;;12.27;;
23988;SDS011;12202;52.136;5.592;2022-10-15T14:25:27;18.45;;;12.68;;
23988;SDS011;12202;52.136;5.592;2022-10-15T14:27:53;19.38;;;13.30;;
23988;SDS011;12202;52.136;5.592;2022-10-15T14:30:21;18.45;;;12.05;;
23988;SDS011;12202;52.136;5.592;2022-10-15T14:32:49;18.65;;;13.05;;
23988;SDS011;12202;52.136;5.592;2022-10-15T14:37:58;17.23;;;11.75;;
23988;SDS011;12202;52.136;5.592;2022-10-15T14:40:24;15.65;;;10.05;;
23988;SDS011;12202;52.136;5.592;2022-10-15T14:45:24;20.10;;;10.60;;
23988;SDS011;12202;52.136;5.592;2022-10-15T14:47:52;16.30;;;10.15;;
23988;SDS011;12202;52.136;5.592;2022-10-15T14:50:18;12.73;;;8.60;;
23988;SDS011;12202;52.136;5.592;2022-10-15T14:52:45;12.80;;;8.18;;
23988;SDS011;12202;52.136;5.592;2022-10-15T14:55:13;11.45;;;8.00;;
23988;SDS011;12202;52.136;5.592;2022-10-15T14:57:42;11.25;;;6.45;;
23988;SDS011;12202;52.136;5.592;2022-10-15T15:00:30;12.27;;;7.50;;
23988;SDS011;12202;52.136;5.592;2022-10-15T15:02:57;18.27;;;7.43;;
23988;SDS011;12202;52.136;5.592;2022-10-15T15:05:24;13.02;;;7.50;;
23988;SDS011;12202;52.136;5.592;2022-10-15T15:07:50;10.90;;;6.85;;
23988;SDS011;12202;52.136;5.592;2022-10-15T15:10:16;14.82;;;9.32;;
23988;SDS011;12202;52.136;5.592;2022-10-15T15:12:45;12.98;;;6.95;;
23988;SDS011;12202;52.136;5.592;2022-10-15T15:15:12;13.98;;;6.75;;
23988;SDS011;12202;52.136;5.592;2022-10-15T15:17:38;9.07;;;5.60;;
23988;SDS011;12202;52.136;5.592;2022-10-15T15:20:04;10.88;;;5.20;;
23988;SDS011;12202;52.136;5.592;2022-10-15T15:22:31;10.13;;;5.18;;
23988;SDS011;12202;52.136;5.592;2022-10-15T15:24:58;9.15;;;5.10;;
23988;SDS011;12202;52.136;5.592;2022-10-15T15:27:25;10.23;;;5.55;;
23988;SDS011;12202;52.136;5.592;2022-10-15T15:29:52;10.27;;;5.88;;
23988;SDS011;12202;52.136;5.592;2022-10-15T15:32:19;10.52;;;5.60;;
23988;SDS011;12202;52.136;5.592;2022-10-15T15:34:46;9.27;;;5.40;;
23988;SDS011;12202;52.136;5.592;2022-10-15T15:37:19;8.98;;;5.53;;
23988;SDS011;12202;52.136;5.592;2022-10-15T15:39:46;7.13;;;4.03;;
23988;SDS011;12202;52.136;5.592;2022-10-15T15:42:13;5.90;;;3.72;;
23988;SDS011;12202;52.136;5.592;2022-10-15T15:44:39;7.00;;;3.38;;
23988;SDS011;12202;52.136;5.592;2022-10-15T15:47:06;10.40;;;3.28;;
23988;SDS011;12202;52.136;5.592;2022-10-15T15:49:32;4.63;;;3.22;;